METAR Data
IDs: Format: Raw Decoded Include TAF

Data at: 1210 UTC 23 Jun 2021

METAR for:KCPW (Wolf Creek Pass, CO, US)
Text:KCPW 231155Z AUTO 25007KT 10SM CLR 10/M07 A3060 RMK AO2
Temperature: 10.0°C ( 50°F)
Dewpoint: -7.0°C ( 19°F) [RH = 29%]
Pressure (altimeter):30.60 inches Hg (1036.3 mb)
Winds:from the WSW (250 degrees) at 8 MPH (7 knots; 3.6 m/s)
Visibility:10 or more sm (16+ km)
Ceiling:at least 12,000 feet AGL
Clouds:sky clear below 12,000 feet AGL
QC Flag:automated observation with no human augmentation